Time;durP1;ratioP1;P1;durP2;ratioP2;P2;SDS_P1;SDS_P2;PMS_P1;PMS_P2;Temp;Humidity;BMP_temperature;BMP_pressure;BME280_temperature;BME280_humidity;BME280_pressure;Samples;Min_cycle;Max_cycle;Signal;HPM_P1;HPM_P2
2022/01/19 00:01:04;;;;;;;6.55;3.63;;;;;;;5.56;58.62;102758.84;5028348;28;20156;-79
2022/01/19 00:03:29;;;;;;;7.70;3.10;;;;;;;5.65;57.85;102761.72;5025903;28;20108;-79
2022/01/19 00:05:56;;;;;;;5.63;3.38;;;;;;;5.67;58.00;102759.16;5041695;28;20038;-79
2022/01/19 00:08:22;;;;;;;6.45;3.13;;;;;;;5.42;59.63;102763.53;5024996;28;20037;-79
2022/01/19 00:10:49;;;;;;;4.80;2.90;;;;;;;5.27;59.51;102764.75;5031885;28;20651;-79
2022/01/19 00:13:15;;;;;;;4.18;2.63;;;;;;;5.33;59.04;102765.81;5026672;28;20030;-79
2022/01/19 00:15:41;;;;;;;4.05;2.55;;;;;;;5.48;58.50;102756.00;5037057;28;20037;-79
2022/01/19 00:18:07;;;;;;;4.63;2.92;;;;;;;5.55;58.70;102746.78;5025066;28;20025;-79
2022/01/19 00:20:34;;;;;;;4.75;3.35;;;;;;;5.07;60.33;102745.19;5032289;28;20033;-79
2022/01/19 00:23:01;;;;;;;7.22;3.65;;;;;;;5.09;60.34;102731.53;5031533;28;20021;-79
2022/01/19 00:25:27;;;;;;;5.78;3.38;;;;;;;5.62;59.45;102704.91;5028155;28;20061;-79
2022/01/19 00:27:53;;;;;;;7.05;3.10;;;;;;;5.67;59.77;102690.44;5029036;28;20117;-79
2022/01/19 00:30:19;;;;;;;4.82;3.20;;;;;;;5.66;58.73;102680.94;5040115;28;20040;-79
2022/01/19 00:32:45;;;;;;;6.57;3.00;;;;;;;5.66;59.08;102669.75;5024291;28;20468;-79
2022/01/19 00:35:12;;;;;;;4.68;3.13;;;;;;;5.54;59.45;102667.69;5031579;28;20021;-79
2022/01/19 00:37:39;;;;;;;5.13;2.72;;;;;;;5.77;58.89;102670.94;5023841;28;20029;-79
2022/01/19 00:40:06;;;;;;;7.13;3.00;;;;;;;5.53;59.50;102676.25;5027579;28;20038;-79
2022/01/19 00:42:32;;;;;;;4.05;2.65;;;;;;;5.41;59.83;102683.63;5024954;28;20156;-79
2022/01/19 00:44:57;;;;;;;5.65;3.13;;;;;;;5.68;59.26;102683.56;5030027;28;20516;-79
2022/01/19 00:47:23;;;;;;;4.13;2.70;;;;;;;5.86;58.96;102678.94;5025592;28;20029;-79
2022/01/19 00:49:48;;;;;;;5.22;2.70;;;;;;;5.83;59.55;102684.88;5023646;28;20526;-79
2022/01/19 00:52:14;;;;;;;6.32;3.10;;;;;;;5.99;59.42;102687.06;5027733;28;20036;-79
2022/01/19 00:54:41;;;;;;;5.22;3.10;;;;;;;5.86;59.28;102697.00;5025405;28;20067;-79
2022/01/19 00:57:07;;;;;;;4.38;2.72;;;;;;;5.78;59.58;102698.47;5024805;28;20036;-79
2022/01/19 00:59:33;;;;;;;7.03;2.88;;;;;;;5.59;59.44;102691.91;5023041;28;20482;-79
2022/01/19 01:01:59;;;;;;;4.95;2.55;;;;;;;5.58;60.47;102690.16;5026676;28;20029;-79
2022/01/19 01:04:24;;;;;;;3.75;2.20;;;;;;;5.89;58.92;102673.88;5007631;28;20038;-79
2022/01/19 01:06:50;;;;;;;3.35;2.22;;;;;;;5.78;60.07;102668.41;5031791;28;20374;-79
2022/01/19 01:09:16;;;;;;;3.17;2.35;;;;;;;5.96;59.72;102671.50;5026017;28;20053;-79
2022/01/19 01:11:58;;;;;;;5.50;3.10;;;;;;;5.70;60.15;102669.00;5033936;28;20490;-79
2022/01/19 01:19:59;;;;;;;6.40;2.80;;;;;;;5.86;59.98;102668.63;4989840;28;20052;-79
2022/01/19 01:22:25;;;;;;;6.10;2.33;;;;;;;5.89;60.88;102674.72;5026098;28;20100;-79
2022/01/19 01:24:51;;;;;;;4.03;2.33;;;;;;;5.92;60.27;102687.72;5033576;28;20481;-79
2022/01/19 01:27:16;;;;;;;5.28;2.63;;;;;;;5.93;61.37;102686.88;5026584;28;20037;-79
2022/01/19 01:29:41;;;;;;;5.85;2.67;;;;;;;6.03;61.17;102681.19;5050461;28;20037;-79
2022/01/19 01:32:08;;;;;;;4.35;2.35;;;;;;;6.01;61.45;102674.19;5028298;28;20037;-79
2022/01/19 01:34:34;;;;;;;6.22;2.50;;;;;;;6.09;60.67;102677.00;5036539;28;20042;-79
2022/01/19 01:37:00;;;;;;;5.80;2.92;;;;;;;6.25;60.09;102655.94;5023735;28;20061;-79
2022/01/19 01:39:26;;;;;;;3.90;2.53;;;;;;;6.30;60.82;102650.09;5031757;28;20072;-80
2022/01/19 01:41:51;;;;;;;4.25;2.47;;;;;;;6.42;60.10;102644.38;5024588;28;20068;-79
2022/01/19 01:44:17;;;;;;;11.90;2.80;;;;;;;6.47;59.76;102651.41;5029359;28;20036;-79
2022/01/19 01:46:49;;;;;;;4.32;2.65;;;;;;;6.49;60.51;102661.78;5023264;28;20045;-79
2022/01/19 01:49:28;;;;;;;5.03;2.70;;;;;;;6.38;60.95;102671.78;5028771;28;20045;-79
2022/01/19 01:54:40;;;;;;;4.53;3.10;;;;;;;6.33;61.20;102681.13;5020609;28;20441;-79
2022/01/19 01:57:06;;;;;;;5.25;3.45;;;;;;;6.50;60.77;102685.06;5025576;28;20497;-79
2022/01/19 01:59:35;;;;;;;5.13;3.08;;;;;;;6.63;61.15;102680.22;5029601;28;20024;-79
2022/01/19 02:02:01;;;;;;;5.78;3.17;;;;;;;6.55;60.19;102682.59;5036590;28;20021;-79
2022/01/19 02:04:26;;;;;;;4.05;2.83;;;;;;;6.74;59.11;102669.31;5021545;28;20042;-79
2022/01/19 02:09:39;;;;;;;4.57;2.92;;;;;;;6.70;60.21;102659.75;5026954;28;20037;-79
2022/01/19 02:26:00;;;;;;;2.83;1.92;;;;;;;6.79;58.90;102610.88;5034757;28;20038;-79
2022/01/19 02:42:12;;;;;;;2.72;1.73;;;;;;;6.79;59.29;102571.28;5029754;28;20144;-79
2022/01/19 02:49:53;;;;;;;2.97;1.50;;;;;;;6.90;59.70;102557.75;5030268;28;20466;-79
2022/01/19 02:52:20;;;;;;;2.28;1.50;;;;;;;6.82;59.30;102556.72;5028223;28;20043;-79
2022/01/19 02:54:47;;;;;;;2.38;1.67;;;;;;;6.81;59.62;102554.97;5025865;28;20026;-79
2022/01/19 02:57:14;;;;;;;3.40;1.63;;;;;;;6.83;59.69;102550.72;5028794;28;20045;-79
2022/01/19 03:10:24;;;;;;;1.45;1.20;;;;;;;6.92;58.11;102508.72;5028996;28;20051;-80
2022/01/19 03:12:50;;;;;;;2.58;1.42;;;;;;;7.20;57.65;102492.09;5023235;28;20033;-79
2022/01/19 03:15:15;;;;;;;2.88;1.25;;;;;;;7.01;58.87;102486.53;5034050;28;20044;-79
2022/01/19 03:17:41;;;;;;;2.10;1.38;;;;;;;6.95;58.23;102481.25;5022343;28;20052;-79
2022/01/19 03:20:08;;;;;;;1.63;1.13;;;;;;;7.09;58.39;102479.81;5029157;28;20402;-79
2022/01/19 03:22:40;;;;;;;1.92;1.52;;;;;;;7.12;58.09;102463.50;5027654;28;20049;-79
2022/01/19 03:25:12;;;;;;;1.48;1.20;;;;;;;7.24;57.63;102455.09;5036530;28;20037;-79
2022/01/19 03:27:39;;;;;;;1.67;1.30;;;;;;;6.97;57.66;102452.84;5029841;28;20045;-79
2022/01/19 03:30:09;;;;;;;1.60;1.10;;;;;;;6.90;58.11;102453.59;5026498;28;20201;-79
2022/01/19 03:32:35;;;;;;;1.88;1.45;;;;;;;6.93;58.68;102445.91;5031206;28;20120;-79
2022/01/19 03:35:01;;;;;;;2.10;1.23;;;;;;;7.16;57.29;102447.22;5030567;28;20450;-79
2022/01/19 03:37:27;;;;;;;1.67;1.40;;;;;;;7.16;57.76;102436.00;5028384;28;20045;-79
2022/01/19 03:39:53;;;;;;;1.92;1.23;;;;;;;7.32;56.96;102431.16;5028756;28;20034;-79
2022/01/19 03:42:18;;;;;;;2.60;1.60;;;;;;;7.43;56.69;102427.06;5030539;28;20094;-79
2022/01/19 03:44:44;;;;;;;1.33;1.08;;;;;;;7.07;56.75;102435.00;5024831;28;20049;-79
2022/01/19 03:47:10;;;;;;;1.80;1.33;;;;;;;7.25;57.60;102450.00;5029748;28;20584;-79
2022/01/19 03:49:35;;;;;;;2.38;1.50;;;;;;;7.08;58.06;102454.81;5028140;28;20596;-79
2022/01/19 03:52:04;;;;;;;2.80;1.80;;;;;;;7.03;58.78;102455.56;5035151;28;20457;-79
2022/01/19 03:54:32;;;;;;;1.73;1.48;;;;;;;7.14;58.04;102456.63;5030970;28;20134;-79
2022/01/19 03:56:58;;;;;;;2.38;1.38;;;;;;;7.05;57.46;102449.56;5024907;28;20038;-80
2022/01/19 03:59:23;;;;;;;2.53;1.58;;;;;;;7.19;57.01;102449.88;5036194;28;20083;-79
2022/01/19 04:01:53;;;;;;;2.30;1.63;;;;;;;6.95;57.83;102450.25;5025383;28;20049;-79
2022/01/19 04:09:31;;;;;;;1.83;1.40;;;;;;;6.98;58.03;102446.84;5026576;28;20100;-79
2022/01/19 04:11:57;;;;;;;1.85;1.38;;;;;;;6.88;57.22;102443.19;5025928;28;20037;-79
2022/01/19 04:14:24;;;;;;;1.58;1.25;;;;;;;6.75;58.60;102442.91;5026021;28;20453;-79
2022/01/19 04:17:10;;;;;;;1.70;1.10;;;;;;;6.96;57.75;102445.97;5028569;28;20092;-79
2022/01/19 04:22:04;;;;;;;1.92;1.33;;;;;;;6.91;57.26;102451.00;5026938;28;20619;-79
2022/01/19 04:24:30;;;;;;;2.00;1.27;;;;;;;6.89;56.96;102441.50;5009177;28;20048;-79
2022/01/19 04:29:51;;;;;;;3.30;1.58;;;;;;;7.09;56.25;102424.66;5025946;28;20037;-79
2022/01/19 04:32:25;;;;;;;2.35;1.30;;;;;;;6.87;56.86;102415.63;5025640;28;20104;-79
2022/01/19 04:34:51;;;;;;;2.92;1.52;;;;;;;6.90;57.01;102407.94;5025622;28;20048;-79
2022/01/19 05:06:49;;;;;;;2.35;1.48;;;;;;;6.88;55.19;102390.66;5022184;28;20037;-79
2022/01/19 05:14:33;;;;;;;2.25;1.35;;;;;;;6.86;55.40;102376.84;5029579;28;20041;-79
2022/01/19 05:16:58;;;;;;;2.10;1.48;;;;;;;6.96;54.71;102377.06;5030753;28;20037;-79
2022/01/19 05:19:24;;;;;;;1.80;1.25;;;;;;;6.94;54.84;102371.00;5040668;28;20510;-79
2022/01/19 05:21:49;;;;;;;6.20;1.50;;;;;;;6.81;56.96;102375.91;5023181;28;20038;-79
2022/01/19 05:24:15;;;;;;;1.80;1.45;;;;;;;6.95;56.37;102380.50;5021470;28;20046;-79
2022/01/19 05:26:40;;;;;;;2.58;1.67;;;;;;;6.89;57.79;102389.81;5021650;28;20029;-79
2022/01/19 05:29:06;;;;;;;1.48;1.38;;;;;;;6.87;56.52;102394.09;5021529;28;20474;-80
2022/01/19 05:31:31;;;;;;;2.92;1.52;;;;;;;6.85;56.92;102396.63;5026554;28;20038;-76
2022/01/19 05:33:57;;;;;;;2.00;1.58;;;;;;;6.75;56.99;102386.09;5026014;28;20433;-76
2022/01/19 05:36:32;;;;;;;1.95;1.42;;;;;;;6.85;56.29;102377.69;5032217;28;20042;-79
2022/01/19 05:39:07;;;;;;;2.42;1.70;;;;;;;6.75;55.66;102381.78;5037015;28;20034;-79
2022/01/19 05:41:35;;;;;;;3.70;1.90;;;;;;;6.82;56.99;102364.72;5020660;28;20029;-79
2022/01/19 05:44:04;;;;;;;2.53;1.92;;;;;;;6.96;55.46;102348.63;5035021;28;20049;-79
2022/01/19 05:46:30;;;;;;;2.38;1.58;;;;;;;6.96;54.85;102350.38;4992794;28;20045;-76
2022/01/19 05:48:57;;;;;;;3.25;1.73;;;;;;;6.99;56.26;102342.66;5017862;28;20472;-76
2022/01/19 05:51:22;;;;;;;2.13;1.75;;;;;;;6.97;55.19;102334.88;5039112;28;20065;-76
2022/01/19 05:53:49;;;;;;;3.75;2.25;;;;;;;6.70;55.44;102336.94;5025562;28;20118;-76
2022/01/19 05:56:14;;;;;;;4.85;2.47;;;;;;;6.92;56.62;102333.94;5035077;28;20106;-76
2022/01/19 05:58:40;;;;;;;3.00;2.08;;;;;;;6.94;56.23;102328.78;5041470;28;20493;-76
2022/01/19 06:01:05;;;;;;;2.60;1.92;;;;;;;6.95;56.65;102334.00;5028089;28;20144;-76
2022/01/19 06:03:30;;;;;;;2.75;1.80;;;;;;;6.83;56.07;102327.72;5044290;28;20033;-76
2022/01/19 06:05:56;;;;;;;3.45;2.20;;;;;;;6.78;55.93;102327.59;5029965;28;20124;-76
2022/01/19 06:10:48;;;;;;;2.30;2.05;;;;;;;6.78;56.84;102322.44;5035730;28;20038;-76
2022/01/19 06:13:17;;;;;;;2.45;2.00;;;;;;;6.70;55.84;102315.41;5030206;28;20036;-76
2022/01/19 06:15:44;;;;;;;3.75;2.47;;;;;;;6.80;56.04;102307.00;5034621;28;20045;-76
2022/01/19 06:18:11;;;;;;;3.50;2.13;;;;;;;6.81;57.09;102312.19;5028744;28;20021;-76
2022/01/19 06:20:39;;;;;;;3.35;2.28;;;;;;;6.83;56.99;102307.06;5030280;28;20040;-76
2022/01/19 06:23:05;;;;;;;4.45;2.40;;;;;;;6.93;57.10;102302.06;5027530;28;20394;-76
2022/01/19 06:25:31;;;;;;;2.90;2.20;;;;;;;6.70;57.08;102302.47;5022280;28;20049;-76
2022/01/19 06:27:57;;;;;;;4.03;2.55;;;;;;;6.95;56.23;102296.94;5034932;28;20038;-76
2022/01/19 06:30:23;;;;;;;4.85;2.85;;;;;;;6.82;56.53;102303.59;5026793;28;20037;-76
2022/01/19 06:32:48;;;;;;;3.47;2.55;;;;;;;6.91;55.61;102295.13;5029920;28;20581;-76
2022/01/19 06:35:14;;;;;;;3.35;2.50;;;;;;;6.68;56.12;102302.47;5027860;28;20021;-77
2022/01/19 06:37:40;;;;;;;2.97;2.45;;;;;;;6.79;56.50;102300.06;5025508;28;20046;-77
2022/01/19 06:40:08;;;;;;;5.05;2.55;;;;;;;6.63;56.27;102300.66;5027746;28;20056;-77
2022/01/19 06:42:34;;;;;;;5.13;2.85;;;;;;;6.83;56.71;102292.44;5042331;28;20034;-77
2022/01/19 06:44:59;;;;;;;3.50;2.60;;;;;;;6.60;57.65;102295.41;5023217;28;20052;-76
2022/01/19 06:47:25;;;;;;;3.22;2.42;;;;;;;6.81;57.16;102288.09;5033090;28;20608;-77
2022/01/19 06:49:50;;;;;;;5.40;2.97;;;;;;;6.71;56.37;102286.16;5023781;28;20025;-77
2022/01/19 06:52:16;;;;;;;3.65;2.60;;;;;;;6.69;56.22;102278.41;5026917;28;20037;-77
2022/01/19 06:54:42;;;;;;;2.97;2.50;;;;;;;6.86;55.61;102276.13;5023190;28;20034;-77
2022/01/19 06:57:07;;;;;;;3.58;2.60;;;;;;;6.90;55.96;102263.28;5022554;28;20853;-76
2022/01/19 06:59:33;;;;;;;4.55;2.78;;;;;;;6.83;56.34;102260.56;5044684;28;20037;-76
2022/01/19 07:01:59;;;;;;;4.75;2.70;;;;;;;7.04;55.07;102253.19;5026962;28;20037;-76
2022/01/19 07:04:24;;;;;;;5.03;3.55;;;;;;;6.86;55.92;102242.53;5021774;28;20048;-75
2022/01/19 07:06:50;;;;;;;4.57;3.20;;;;;;;6.68;56.16;102244.78;5026705;28;20040;-76
2022/01/19 07:09:15;;;;;;;3.78;2.35;;;;;;;6.84;56.78;102237.31;5034700;28;20107;-76
2022/01/19 07:11:41;;;;;;;5.57;2.67;;;;;;;6.84;55.96;102236.47;5026175;28;20726;-76
2022/01/19 07:14:08;;;;;;;2.67;2.45;;;;;;;6.77;55.14;102226.88;5035627;28;20028;-76
2022/01/19 07:16:34;;;;;;;5.88;2.95;;;;;;;6.86;56.18;102235.66;5027081;28;20128;-76
2022/01/19 07:19:00;;;;;;;6.05;2.92;;;;;;;6.75;56.73;102231.16;5030880;28;20125;-75
2022/01/19 07:21:25;;;;;;;4.00;2.13;;;;;;;6.93;56.29;102219.41;5026272;28;20034;-75
2022/01/19 07:23:51;;;;;;;5.82;3.33;;;;;;;6.87;57.06;102223.63;5031431;28;20067;-76
2022/01/19 07:26:16;;;;;;;3.15;2.38;;;;;;;6.89;56.78;102225.38;5027503;28;20026;-76
2022/01/19 07:28:42;;;;;;;4.07;3.10;;;;;;;6.62;57.76;102224.00;5023894;28;20112;-76
2022/01/19 07:31:07;;;;;;;5.45;2.97;;;;;;;6.69;57.65;102229.34;5027505;28;20041;-76
2022/01/19 07:33:33;;;;;;;3.20;2.90;;;;;;;6.82;56.00;102220.94;5024354;28;20049;-75
2022/01/19 07:35:59;;;;;;;4.82;3.10;;;;;;;6.79;56.51;102209.69;5026291;28;20116;-76
2022/01/19 07:38:26;;;;;;;4.80;3.15;;;;;;;6.75;56.32;102215.66;5008801;28;20100;-76
2022/01/19 07:40:52;;;;;;;5.60;2.70;;;;;;;6.74;56.80;102216.50;5023512;28;20025;-75
2022/01/19 07:43:18;;;;;;;6.68;3.08;;;;;;;6.98;56.61;102201.41;5026454;28;20064;-75
2022/01/19 07:45:43;;;;;;;3.53;3.00;;;;;;;6.85;56.65;102213.25;5032085;28;20131;-75
2022/01/19 07:48:10;;;;;;;4.75;3.10;;;;;;;6.85;56.82;102205.50;5027912;28;20040;-75
2022/01/19 07:50:38;;;;;;;4.53;3.15;;;;;;;6.92;57.64;102209.94;5030257;28;20542;-75
2022/01/19 07:53:04;;;;;;;3.53;2.70;;;;;;;6.67;57.21;102212.91;5028148;28;20110;-76
2022/01/19 07:55:30;;;;;;;5.30;3.15;;;;;;;6.85;57.98;102208.09;5026083;28;20494;-76
2022/01/19 07:57:55;;;;;;;5.00;3.15;;;;;;;6.66;58.64;102218.06;5037092;28;20084;-76
2022/01/19 08:00:21;;;;;;;4.43;2.65;;;;;;;6.92;56.14;102220.28;5023341;28;20041;-76
2022/01/19 08:02:47;;;;;;;3.78;2.95;;;;;;;6.78;57.90;102220.88;5027570;28;20056;-76
2022/01/19 08:05:12;;;;;;;3.88;2.78;;;;;;;6.88;57.57;102220.19;5029567;28;20052;-75
2022/01/19 08:07:39;;;;;;;4.68;3.10;;;;;;;6.75;58.68;102215.66;5023193;28;20114;-75
2022/01/19 08:10:07;;;;;;;4.72;3.30;;;;;;;6.62;57.90;102214.56;5028325;28;20509;-75
2022/01/19 08:12:32;;;;;;;3.63;2.88;;;;;;;6.86;57.89;102209.84;5020735;28;20042;-76
2022/01/19 08:14:59;;;;;;;6.32;3.22;;;;;;;6.79;56.66;102207.09;5024014;28;20033;-75
2022/01/19 08:17:29;;;;;;;4.03;2.80;;;;;;;6.77;57.14;102211.38;5028108;28;20044;-77
2022/01/19 08:19:56;;;;;;;3.83;2.75;;;;;;;6.83;57.18;102214.06;5020024;28;20390;-75
2022/01/19 08:22:22;;;;;;;4.75;3.40;;;;;;;6.87;57.18;102210.72;5027630;28;20040;-76
2022/01/19 08:24:48;;;;;;;4.43;3.25;;;;;;;6.77;57.54;102212.25;5036990;28;20038;-75
2022/01/19 08:27:14;;;;;;;5.07;2.80;;;;;;;6.82;57.37;102208.03;5039385;28;20044;-75
2022/01/19 08:29:40;;;;;;;7.22;3.05;;;;;;;6.83;57.53;102208.91;5004587;28;20397;-75
2022/01/19 08:32:06;;;;;;;4.00;3.47;;;;;;;6.90;56.76;102201.28;5030545;28;20045;-75
2022/01/19 08:34:32;;;;;;;3.20;2.65;;;;;;;6.87;58.05;102190.03;5027313;28;20037;-75
2022/01/19 08:36:59;;;;;;;7.72;3.20;;;;;;;6.80;57.14;102199.41;5025061;28;20482;-75
2022/01/19 08:39:25;;;;;;;4.43;3.28;;;;;;;6.87;57.39;102188.31;5030676;28;20037;-75
2022/01/19 08:41:51;;;;;;;7.53;3.38;;;;;;;6.83;57.17;102188.25;5024818;28;20738;-75
2022/01/19 08:44:17;;;;;;;4.80;3.38;;;;;;;6.83;58.13;102188.25;5029895;28;20037;-75
2022/01/19 08:46:44;;;;;;;4.65;3.03;;;;;;;6.93;56.93;102182.41;5024803;28;20057;-75
2022/01/19 08:49:10;;;;;;;4.93;3.58;;;;;;;6.79;57.58;102183.84;5025048;28;20060;-75
2022/01/19 08:51:36;;;;;;;5.82;2.65;;;;;;;6.69;58.06;102188.03;5024684;28;20092;-75
2022/01/19 08:54:02;;;;;;;5.68;3.55;;;;;;;6.84;56.47;102183.09;5026893;28;20113;-75
2022/01/19 08:56:27;;;;;;;5.63;3.00;;;;;;;7.01;55.83;102179.09;5020984;28;20081;-75
2022/01/19 08:58:53;;;;;;;4.78;3.15;;;;;;;7.10;55.60;102175.78;5028130;28;20110;-75
2022/01/19 09:01:18;;;;;;;4.75;3.38;;;;;;;6.88;56.77;102178.84;5030274;28;20060;-75
2022/01/19 09:03:44;;;;;;;3.60;2.97;;;;;;;6.99;56.31;102172.13;5023146;28;20045;-75
2022/01/19 09:06:09;;;;;;;5.95;3.60;;;;;;;6.90;56.76;102170.28;5026523;28;20509;-75
2022/01/19 09:08:35;;;;;;;3.58;2.58;;;;;;;7.03;56.02;102166.19;5035924;28;20109;-76
2022/01/19 09:11:01;;;;;;;4.90;2.80;;;;;;;7.03;55.65;102177.38;5023407;28;20045;-75
2022/01/19 09:13:27;;;;;;;6.45;4.30;;;;;;;6.94;56.59;102171.19;5028908;28;20037;-75
2022/01/19 09:15:54;;;;;;;5.43;3.53;;;;;;;7.11;55.40;102177.50;5026731;28;20033;-75
2022/01/19 09:18:20;;;;;;;7.63;3.67;;;;;;;7.05;54.79;102178.28;5027650;28;20038;-75
2022/01/19 09:20:45;;;;;;;4.05;2.88;;;;;;;7.14;55.18;102175.84;5028187;28;20041;-75
2022/01/19 09:23:11;;;;;;;6.03;3.15;;;;;;;7.03;56.77;102177.38;5032597;28;20037;-75
2022/01/19 09:25:39;;;;;;;5.38;3.75;;;;;;;7.04;55.57;102170.50;5033093;28;20042;-75
2022/01/19 09:28:04;;;;;;;4.03;3.63;;;;;;;7.00;55.16;102168.72;5028369;28;20498;-75
2022/01/19 09:30:30;;;;;;;6.82;3.78;;;;;;;7.09;55.17;102166.28;5027292;28;20044;-75
2022/01/19 09:33:10;;;;;;;5.45;4.05;;;;;;;6.98;55.50;102163.53;5011930;28;20041;-75
2022/01/19 09:38:22;;;;;;;7.45;4.70;;;;;;;7.08;55.46;102159.38;5023148;28;20061;-75
2022/01/19 09:40:48;;;;;;;7.00;4.28;;;;;;;6.95;55.23;102162.63;5037668;28;20037;-75
2022/01/19 09:43:17;;;;;;;5.95;4.00;;;;;;;7.02;55.17;102175.63;5014983;28;20144;-75
2022/01/19 09:45:44;;;;;;;5.82;3.90;;;;;;;6.94;56.54;102160.88;5033409;28;20409;-75
2022/01/19 09:48:10;;;;;;;5.22;3.60;;;;;;;6.81;56.01;102158.94;5029989;28;20129;-75
2022/01/19 09:50:36;;;;;;;6.18;4.10;;;;;;;6.73;56.19;102152.75;5037340;28;20025;-75
2022/01/19 09:53:05;;;;;;;6.68;4.18;;;;;;;6.94;57.16;102151.41;5028464;28;20421;-75
2022/01/19 09:55:32;;;;;;;4.82;3.40;;;;;;;7.04;54.70;102135.22;5028531;28;20064;-75
2022/01/19 09:57:57;;;;;;;7.65;3.88;;;;;;;7.07;54.68;102136.97;5029057;28;20042;-75
2022/01/19 10:00:22;;;;;;;4.50;3.63;;;;;;;6.94;55.96;102135.91;5031038;28;20037;-75
2022/01/19 10:03:21;;;;;;;5.00;3.55;;;;;;;7.00;56.58;102119.63;5033287;28;20038;-75
2022/01/19 10:06:08;;;;;;;4.65;3.15;;;;;;;6.84;55.16;102118.50;5023828;28;20037;-75
2022/01/19 10:08:34;;;;;;;6.00;3.70;;;;;;;6.88;54.96;102116.84;5024877;28;20014;-75
2022/01/19 10:11:16;;;;;;;6.80;3.85;;;;;;;7.07;53.91;102117.19;5038361;28;20036;-75
2022/01/19 10:17:01;;;;;;;6.65;3.28;;;;;;;7.10;53.92;102117.22;5001178;28;20046;-75
2022/01/19 10:19:34;;;;;;;5.13;3.53;;;;;;;7.14;54.14;102112.94;5028090;28;20163;-75
2022/01/19 10:22:04;;;;;;;5.82;3.50;;;;;;;6.97;55.08;102119.59;5027395;28;20060;-75
2022/01/19 10:24:37;;;;;;;4.45;3.60;;;;;;;6.95;54.28;102105.78;5032183;28;20131;-75
2022/01/19 10:27:24;;;;;;;7.72;3.65;;;;;;;7.13;53.97;102108.66;5029188;28;20037;-75
2022/01/19 10:30:14;;;;;;;5.93;3.60;;;;;;;7.14;54.45;102100.03;5031878;28;20411;-75
2022/01/19 10:32:55;;;;;;;5.15;3.38;;;;;;;7.10;55.06;102104.31;5025352;28;20439;-75
2022/01/19 10:35:36;;;;;;;4.75;3.25;;;;;;;7.14;55.26;102105.19;5033895;28;20021;-75
2022/01/19 10:38:25;;;;;;;6.55;3.75;;;;;;;6.87;55.17;102102.22;5028405;28;20052;-76
2022/01/19 10:41:01;;;;;;;6.40;4.30;;;;;;;7.10;54.44;102100.84;5024952;28;20037;-75
2022/01/19 10:43:37;;;;;;;6.05;3.42;;;;;;;6.81;55.91;102084.06;5031055;28;20044;-75
2022/01/19 10:46:24;;;;;;;4.80;3.40;;;;;;;6.98;57.03;102083.47;5027658;28;20048;-75
2022/01/19 10:49:06;;;;;;;6.07;4.05;;;;;;;7.16;54.20;102081.97;5027993;28;20401;-75
2022/01/19 10:51:39;;;;;;;6.80;4.18;;;;;;;7.10;55.57;102090.50;5024601;28;20037;-75
2022/01/19 10:54:16;;;;;;;7.38;4.25;;;;;;;7.11;54.34;102087.94;5029452;28;20563;-75
2022/01/19 10:56:48;;;;;;;6.55;4.05;;;;;;;7.09;55.43;102083.59;5026341;28;20480;-76
2022/01/19 10:59:16;;;;;;;6.85;4.10;;;;;;;6.98;56.22;102064.50;5029919;28;20023;-75
2022/01/19 11:02:02;;;;;;;7.50;4.47;;;;;;;6.97;55.10;102063.63;5028570;28;20128;-75
2022/01/19 11:04:30;;;;;;;6.40;4.32;;;;;;;6.81;56.37;102064.22;5026453;28;20037;-75
2022/01/19 11:07:08;;;;;;;6.03;4.50;;;;;;;7.03;54.09;102048.22;5031124;28;20529;-82
2022/01/19 11:09:45;;;;;;;6.72;4.28;;;;;;;7.15;55.04;102050.09;5024677;28;20037;-82
2022/01/19 11:12:14;;;;;;;7.70;4.68;;;;;;;7.01;53.14;102034.41;5026917;28;20552;-82
2022/01/19 11:14:40;;;;;;;6.60;4.50;;;;;;;7.08;53.82;102033.63;5022204;28;20029;-81
2022/01/19 11:17:08;;;;;;;10.13;5.00;;;;;;;7.06;54.06;102034.47;5026054;28;20037;-83
2022/01/19 11:19:38;;;;;;;8.30;4.60;;;;;;;7.06;53.94;102026.72;5030233;28;20675;-81
2022/01/19 11:22:10;;;;;;;6.22;4.53;;;;;;;7.13;54.79;102024.25;5020924;28;20042;-82
2022/01/19 11:24:45;;;;;;;6.85;4.55;;;;;;;6.93;53.22;102024.81;5020465;28;20037;-81
2022/01/19 11:27:12;;;;;;;7.05;4.55;;;;;;;7.02;54.12;102022.34;5026040;28;20029;-81
2022/01/19 11:29:39;;;;;;;9.80;5.15;;;;;;;6.85;53.46;102010.91;5027649;28;20041;-81
2022/01/19 11:32:18;;;;;;;6.82;4.72;;;;;;;6.89;53.92;102011.00;5024789;28;20045;-82
2022/01/19 11:34:53;;;;;;;7.40;4.63;;;;;;;7.02;54.77;102006.84;5032940;28;20033;-81
2022/01/19 11:37:40;;;;;;;13.75;6.13;;;;;;;6.93;55.58;102007.59;5026268;28;20124;-81
2022/01/19 11:40:10;;;;;;;10.40;5.85;;;;;;;6.83;56.77;102005.75;5028622;28;20049;-82
2022/01/19 11:42:36;;;;;;;7.40;5.28;;;;;;;6.83;56.97;102003.16;5022555;28;20589;-81
2022/01/19 11:45:08;;;;;;;9.80;5.15;;;;;;;6.81;56.80;101998.81;5031847;28;20088;-81
2022/01/19 11:47:34;;;;;;;8.10;5.03;;;;;;;6.92;55.73;101989.50;5027699;28;20033;-82
2022/01/19 11:50:10;;;;;;;7.70;4.57;;;;;;;6.93;55.15;101981.75;5027743;28;20116;-82
2022/01/19 11:52:38;;;;;;;9.38;4.93;;;;;;;7.04;55.52;101976.75;5026753;28;20033;-82
2022/01/19 11:55:19;;;;;;;8.23;5.30;;;;;;;7.09;54.92;101962.16;5022274;28;20038;-82
2022/01/19 11:57:48;;;;;;;6.75;4.13;;;;;;;6.85;54.74;101956.69;5022596;28;20068;-82
2022/01/19 12:00:30;;;;;;;6.82;4.32;;;;;;;6.97;55.10;101952.53;5028093;28;20528;-82
2022/01/19 12:02:58;;;;;;;6.20;4.40;;;;;;;6.84;55.30;101954.97;5030750;28;20044;-82
2022/01/19 12:05:30;;;;;;;8.32;4.70;;;;;;;6.87;55.19;101955.00;5025582;28;20034;-78
2022/01/19 12:08:03;;;;;;;6.35;3.95;;;;;;;6.96;55.41;101942.22;5034411;28;20050;-82
2022/01/19 12:10:30;;;;;;;7.68;4.35;;;;;;;6.85;56.98;101930.84;5027818;28;20506;-82
2022/01/19 12:16:19;;;;;;;6.75;4.15;;;;;;;6.72;57.03;101928.97;5028642;28;20060;-82
2022/01/19 12:18:54;;;;;;;10.23;4.47;;;;;;;6.93;54.17;101919.75;5026948;28;20126;-82
2022/01/19 12:21:20;;;;;;;7.72;4.97;;;;;;;6.81;55.69;101924.78;5023106;28;20659;-82
2022/01/19 12:23:46;;;;;;;6.32;4.70;;;;;;;6.73;55.94;101928.97;5028644;28;20041;-82
2022/01/19 12:26:13;;;;;;;7.32;4.63;;;;;;;6.92;55.34;101920.63;5026769;28;20053;-82
2022/01/19 12:28:51;;;;;;;7.95;4.75;;;;;;;6.93;54.63;101911.16;5022057;28;20125;-82
2022/01/19 12:31:26;;;;;;;10.00;4.80;;;;;;;6.78;55.80;101910.97;5028941;28;20533;-82
2022/01/19 12:34:07;;;;;;;;;;;;;;;7.07;54.13;101905.31;5031060;28;20045;-81
2022/01/19 12:37:00;;;;;;;7.70;3.90;;;;;;;7.01;55.42;101910.41;5038654;28;19916;-82
2022/01/19 12:39:26;;;;;;;9.82;4.70;;;;;;;6.89;54.09;101912.84;5021911;28;20109;-82
2022/01/19 12:42:07;;;;;;;7.70;4.85;;;;;;;6.93;55.13;101901.69;5026435;28;20076;-82
2022/01/19 12:44:45;;;;;;;10.15;5.18;;;;;;;6.85;54.54;101899.84;5026443;28;20018;-82
2022/01/19 12:47:26;;;;;;;7.70;4.97;;;;;;;6.97;54.34;101897.41;5026429;28;20088;-82
2022/01/19 12:49:55;;;;;;;8.90;5.22;;;;;;;6.88;55.21;101905.06;5029685;28;20048;-82
2022/01/19 12:52:23;;;;;;;9.32;5.30;;;;;;;6.85;55.53;101903.31;5029754;28;20095;-80
2022/01/19 12:54:49;;;;;;;8.25;5.50;;;;;;;6.76;56.53;101912.66;5028996;28;20021;-76
2022/01/19 12:57:16;;;;;;;8.60;5.50;;;;;;;6.85;55.70;101902.44;5029575;28;20060;-76
2022/01/19 12:59:48;;;;;;;7.22;4.72;;;;;;;6.54;55.57;101889.13;5018583;28;20629;-76
2022/01/19 13:02:16;;;;;;;10.57;6.60;;;;;;;6.70;55.95;101879.00;5021562;28;20026;-76
2022/01/19 13:04:46;;;;;;;9.35;5.68;;;;;;;6.80;56.20;101888.59;5024137;28;20034;-76
2022/01/19 13:07:20;;;;;;;11.35;5.82;;;;;;;7.04;54.25;101878.56;5021435;28;20076;-76
2022/01/19 13:10:09;;;;;;;8.52;5.70;;;;;;;6.97;54.60;101876.75;5022833;28;20046;-76
2022/01/19 13:12:38;;;;;;;9.50;6.38;;;;;;;6.74;56.04;101881.66;5019045;28;20045;-76
2022/01/19 13:15:04;;;;;;;11.82;6.22;;;;;;;6.78;56.52;101888.56;5023193;28;20044;-76
2022/01/19 13:17:48;;;;;;;10.20;6.47;;;;;;;7.05;54.33;101876.00;5025963;28;20053;-76
2022/01/19 13:20:20;;;;;;;10.05;5.88;;;;;;;6.76;55.82;101881.66;5026783;28;20025;-76
2022/01/19 13:22:54;;;;;;;10.57;5.82;;;;;;;6.81;56.16;101873.13;5024475;28;20037;-76
2022/01/19 13:25:23;;;;;;;10.70;5.82;;;;;;;6.86;56.03;101879.22;5027991;28;20135;-76
2022/01/19 13:27:51;;;;;;;9.13;5.57;;;;;;;6.84;55.46;101867.16;5024890;28;20045;-76
2022/01/19 13:30:17;;;;;;;10.90;5.80;;;;;;;6.86;56.90;101875.78;5026535;28;20049;-76
2022/01/19 13:32:42;;;;;;;8.95;5.43;;;;;;;6.73;56.16;101873.88;5024821;28;20029;-76